Time;durP1;ratioP1;P1;durP2;ratioP2;P2;SDS_P1;SDS_P2;PMS_P1;PMS_P2;Temp;Humidity;BMP_temperature;BMP_pressure;BME280_temperature;BME280_humidity;BME280_pressure;Samples;Min_cycle;Max_cycle;Signal;HPM_P1;HPM_P2
2022/10/10 00:01:51;;;;;;;5.80;2.03;;;;;;;;;;5015004;28;20029;-76
2022/10/10 00:04:16;;;;;;;5.07;1.80;;;;;;;;;;5015114;28;20026;-74
2022/10/10 00:06:41;;;;;;;4.68;1.88;;;;;;;;;;5015393;28;20389;-76
2022/10/10 00:09:07;;;;;;;5.05;1.63;;;;;;;;;;5015218;28;20026;-75
2022/10/10 00:11:33;;;;;;;6.72;1.92;;;;;;;;;;5014972;28;20044;-75
2022/10/10 00:14:00;;;;;;;4.65;1.80;;;;;;;;;;5014587;28;20030;-74
2022/10/10 00:16:25;;;;;;;6.10;2.13;;;;;;;;;;5015007;28;20477;-75
2022/10/10 00:18:51;;;;;;;5.13;2.10;;;;;;;;;;5014970;28;20033;-74
2022/10/10 00:21:16;;;;;;;6.10;2.03;;;;;;;;;;5013296;28;20034;-74
2022/10/10 00:23:42;;;;;;;6.95;2.10;;;;;;;;;;5015272;28;20026;-75
2022/10/10 00:26:07;;;;;;;4.85;1.75;;;;;;;;;;5014777;28;20034;-75
2022/10/10 00:28:33;;;;;;;7.13;2.10;;;;;;;;;;5014884;28;20088;-75
2022/10/10 00:30:58;;;;;;;5.00;1.92;;;;;;;;;;5014566;28;20030;-76
2022/10/10 00:33:24;;;;;;;5.97;1.80;;;;;;;;;;5014481;28;20117;-73
2022/10/10 00:35:49;;;;;;;6.47;2.10;;;;;;;;;;5014499;28;20061;-76
2022/10/10 00:38:15;;;;;;;7.15;1.92;;;;;;;;;;5014436;28;20034;-73
2022/10/10 00:40:46;;;;;;;5.70;1.83;;;;;;;;;;5014443;28;20038;-76
2022/10/10 00:43:13;;;;;;;5.28;1.90;;;;;;;;;;5014471;28;20129;-75
2022/10/10 00:45:40;;;;;;;4.57;1.88;;;;;;;;;;5014242;28;20089;-74
2022/10/10 00:48:21;;;;;;;4.50;1.83;;;;;;;;;;5014354;28;20413;-76
2022/10/10 00:50:57;;;;;;;3.90;1.90;;;;;;;;;;5014128;28;20022;-75
2022/10/10 00:53:28;;;;;;;6.30;2.10;;;;;;;;;;5013889;28;20492;-76
2022/10/10 00:55:54;;;;;;;5.25;2.10;;;;;;;;;;5012882;28;20111;-75
2022/10/10 00:58:20;;;;;;;5.57;2.08;;;;;;;;;;5012807;28;20105;-75
2022/10/10 01:00:46;;;;;;;9.43;2.35;;;;;;;;;;5014101;28;20022;-75
2022/10/10 01:03:12;;;;;;;5.95;2.17;;;;;;;;;;5014720;28;20025;-75
2022/10/10 01:05:38;;;;;;;4.82;1.98;;;;;;;;;;5013993;28;20025;-72
2022/10/10 01:08:05;;;;;;;9.40;2.30;;;;;;;;;;5014191;28;20040;-75
2022/10/10 01:10:40;;;;;;;4.22;1.90;;;;;;;;;;5012508;28;20379;-74
2022/10/10 01:13:29;;;;;;;5.72;2.15;;;;;;;;;;5013595;28;20034;-73
2022/10/10 01:16:15;;;;;;;4.63;2.10;;;;;;;;;;5013908;28;20033;-77
2022/10/10 01:18:55;;;;;;;8.65;2.00;;;;;;;;;;5014432;28;20049;-76
2022/10/10 01:21:39;;;;;;;6.07;1.95;;;;;;;;;;5013876;28;20025;-76
2022/10/10 01:24:26;;;;;;;10.00;2.53;;;;;;;;;;5013856;28;20132;-76
2022/10/10 01:27:06;;;;;;;6.03;2.13;;;;;;;;;;5013842;28;20030;-77
2022/10/10 01:29:35;;;;;;;7.22;2.25;;;;;;;;;;5013665;28;20029;-76
2022/10/10 01:32:14;;;;;;;6.97;2.00;;;;;;;;;;5013965;28;20062;-75
2022/10/10 01:34:55;;;;;;;5.68;2.00;;;;;;;;;;5013741;28;20022;-74
2022/10/10 01:37:34;;;;;;;6.53;1.80;;;;;;;;;;5013640;28;20029;-73
2022/10/10 01:40:19;;;;;;;4.80;1.95;;;;;;;;;;5013453;28;20362;-73
2022/10/10 01:42:53;;;;;;;8.65;2.20;;;;;;;;;;5013331;28;20022;-73
2022/10/10 01:45:19;;;;;;;5.38;2.15;;;;;;;;;;5013527;28;20022;-72
2022/10/10 01:47:47;;;;;;;10.13;2.08;;;;;;;;;;5012143;28;20088;-73
2022/10/10 01:50:16;;;;;;;6.22;1.92;;;;;;;;;;5013513;28;20029;-74
2022/10/10 01:52:44;;;;;;;3.97;1.80;;;;;;;;;;5013287;28;20049;-75
2022/10/10 01:55:24;;;;;;;5.50;1.92;;;;;;;;;;5012333;28;20110;-73
2022/10/10 01:58:34;;;;;;;4.78;1.65;;;;;;;;;;5013357;28;20056;-73
2022/10/10 02:01:36;;;;;;;7.13;2.10;;;;;;;;;;5013141;28;20037;-74
2022/10/10 02:04:17;;;;;;;4.70;1.95;;;;;;;;;;5012248;28;20036;-73
2022/10/10 02:06:52;;;;;;;6.80;2.10;;;;;;;;;;5013443;28;20048;-76
2022/10/10 02:09:33;;;;;;;8.95;2.42;;;;;;;;;;5013452;28;20385;-72
2022/10/10 02:11:59;;;;;;;6.82;2.50;;;;;;;;;;5013290;28;20477;-75
2022/10/10 02:14:30;;;;;;;6.10;2.50;;;;;;;;;;5013170;28;20359;-76
2022/10/10 02:16:59;;;;;;;8.23;2.25;;;;;;;;;;5013486;28;20032;-73
2022/10/10 02:19:25;;;;;;;5.90;2.10;;;;;;;;;;5013016;28;20026;-75
2022/10/10 02:21:53;;;;;;;5.35;2.35;;;;;;;;;;5013384;28;20030;-77
2022/10/10 02:24:21;;;;;;;4.60;2.17;;;;;;;;;;5013410;28;20056;-79
2022/10/10 02:26:52;;;;;;;8.00;2.75;;;;;;;;;;5016127;28;20034;-79
2022/10/10 02:29:28;;;;;;;9.05;2.75;;;;;;;;;;5016997;28;20114;-77
2022/10/10 02:32:03;;;;;;;7.13;2.55;;;;;;;;;;5016822;28;20034;-76
2022/10/10 02:34:34;;;;;;;6.30;2.63;;;;;;;;;;5016722;28;20485;-78
2022/10/10 02:37:03;;;;;;;9.93;2.72;;;;;;;;;;5015255;28;20548;-79
2022/10/10 02:39:32;;;;;;;8.57;2.60;;;;;;;;;;5016578;28;20425;-78
2022/10/10 02:41:58;;;;;;;5.22;2.70;;;;;;;;;;5016602;28;20061;-79
2022/10/10 02:44:24;;;;;;;6.25;2.65;;;;;;;;;;5016916;28;20033;-78
2022/10/10 02:46:50;;;;;;;6.68;3.03;;;;;;;;;;5016533;28;20017;-76
2022/10/10 02:49:23;;;;;;;6.03;2.85;;;;;;;;;;5016666;28;20025;-78
2022/10/10 02:51:48;;;;;;;7.30;2.70;;;;;;;;;;5016776;28;20489;-77
2022/10/10 02:54:13;;;;;;;7.70;2.92;;;;;;;;;;5016169;28;20116;-72
2022/10/10 02:56:39;;;;;;;8.50;3.08;;;;;;;;;;5016452;28;20093;-72
2022/10/10 02:59:04;;;;;;;5.85;3.00;;;;;;;;;;5016407;28;20022;-73
2022/10/10 03:01:30;;;;;;;8.23;3.17;;;;;;;;;;5016212;28;20073;-73
2022/10/10 03:03:55;;;;;;;8.02;3.08;;;;;;;;;;5016419;28;20385;-73
2022/10/10 03:06:20;;;;;;;6.70;2.92;;;;;;;;;;5022015;28;20021;-71
2022/10/10 03:08:46;;;;;;;9.23;2.90;;;;;;;;;;5026533;28;20033;-72
2022/10/10 03:11:11;;;;;;;7.25;3.00;;;;;;;;;;5026428;28;20217;-71
2022/10/10 03:13:37;;;;;;;5.30;3.00;;;;;;;;;;5025949;28;20025;-72
2022/10/10 03:16:03;;;;;;;7.07;2.90;;;;;;;;;;5025655;28;20360;-71
2022/10/10 03:18:28;;;;;;;7.15;3.20;;;;;;;;;;5019908;28;20481;-71
2022/10/10 03:20:55;;;;;;;5.35;2.97;;;;;;;;;;5015896;28;20041;-72
2022/10/10 03:23:24;;;;;;;6.57;3.30;;;;;;;;;;5016512;28;20768;-73
2022/10/10 03:25:50;;;;;;;7.32;3.33;;;;;;;;;;5015680;28;20103;-72
2022/10/10 03:28:15;;;;;;;6.32;3.33;;;;;;;;;;5015646;28;20177;-71
2022/10/10 03:30:41;;;;;;;7.55;3.20;;;;;;;;;;5015614;28;20538;-71
2022/10/10 03:33:07;;;;;;;10.45;3.30;;;;;;;;;;5015659;28;20022;-73
2022/10/10 03:35:33;;;;;;;8.98;3.40;;;;;;;;;;5017514;28;20026;-72
2022/10/10 03:37:59;;;;;;;8.98;3.38;;;;;;;;;;5015169;28;20022;-72
2022/10/10 03:40:26;;;;;;;5.15;3.00;;;;;;;;;;5015873;28;20049;-73
2022/10/10 03:42:51;;;;;;;9.45;3.30;;;;;;;;;;5015471;28;20025;-72
2022/10/10 03:45:17;;;;;;;6.53;3.00;;;;;;;;;;5015548;28;20029;-74
2022/10/10 03:47:42;;;;;;;6.85;3.42;;;;;;;;;;5015569;28;20548;-72
2022/10/10 03:50:08;;;;;;;6.40;3.30;;;;;;;;;;5015296;28;20485;-72
2022/10/10 03:52:34;;;;;;;7.50;2.95;;;;;;;;;;5015229;28;20030;-76
2022/10/10 03:54:59;;;;;;;7.05;3.30;;;;;;;;;;5015434;28;20029;-73
2022/10/10 03:57:25;;;;;;;5.93;2.83;;;;;;;;;;5015277;28;20030;-74
2022/10/10 03:59:50;;;;;;;6.55;3.00;;;;;;;;;;5015188;28;20033;-76
2022/10/10 04:02:16;;;;;;;8.45;3.20;;;;;;;;;;5015692;28;20052;-75
2022/10/10 04:04:41;;;;;;;7.88;3.28;;;;;;;;;;5014929;28;20067;-75
2022/10/10 04:07:06;;;;;;;5.30;2.90;;;;;;;;;;5015052;28;20022;-74
2022/10/10 04:09:32;;;;;;;7.25;2.97;;;;;;;;;;5014901;28;20046;-77
2022/10/10 04:11:58;;;;;;;7.53;3.38;;;;;;;;;;5015288;28;20030;-75
2022/10/10 04:14:24;;;;;;;5.65;3.13;;;;;;;;;;5014927;28;20030;-73
2022/10/10 04:16:49;;;;;;;5.68;2.95;;;;;;;;;;5014977;28;20029;-75
2022/10/10 04:19:14;;;;;;;4.68;2.83;;;;;;;;;;5014840;28;20018;-74
2022/10/10 04:21:40;;;;;;;7.60;3.28;;;;;;;;;;5014645;28;20022;-73
2022/10/10 04:24:05;;;;;;;9.07;3.28;;;;;;;;;;5013295;28;20505;-74
2022/10/10 04:26:31;;;;;;;8.00;3.15;;;;;;;;;;5014678;28;20041;-75
2022/10/10 04:28:56;;;;;;;5.68;2.97;;;;;;;;;;5014821;28;20044;-72
2022/10/10 04:31:22;;;;;;;7.30;3.13;;;;;;;;;;5014735;28;20022;-74
2022/10/10 04:33:48;;;;;;;6.63;2.97;;;;;;;;;;5014541;28;20433;-73
2022/10/10 04:36:13;;;;;;;7.10;3.20;;;;;;;;;;5015078;28;20018;-74
2022/10/10 04:38:39;;;;;;;7.32;3.05;;;;;;;;;;5014487;28;20060;-72
2022/10/10 04:41:04;;;;;;;8.02;3.13;;;;;;;;;;5014516;28;20060;-71
2022/10/10 04:43:30;;;;;;;9.35;3.20;;;;;;;;;;5014275;28;20080;-73
2022/10/10 04:45:57;;;;;;;9.48;3.05;;;;;;;;;;5014492;28;20030;-71
2022/10/10 04:48:22;;;;;;;8.98;3.00;;;;;;;;;;5013734;28;20101;-70
2022/10/10 04:50:55;;;;;;;8.13;3.10;;;;;;;;;;5014252;28;20114;-70
2022/10/10 04:53:21;;;;;;;7.88;2.78;;;;;;;;;;5014080;28;20056;-72
2022/10/10 04:55:46;;;;;;;7.53;3.13;;;;;;;;;;5014357;28;20033;-71
2022/10/10 04:58:12;;;;;;;10.23;2.90;;;;;;;;;;5013974;28;20038;-71
2022/10/10 05:00:38;;;;;;;7.97;2.83;;;;;;;;;;5013931;28;20385;-71
2022/10/10 05:03:03;;;;;;;7.55;3.00;;;;;;;;;;5014092;28;20025;-72
2022/10/10 05:05:29;;;;;;;6.72;2.90;;;;;;;;;;5014172;28;20025;-72
2022/10/10 05:07:54;;;;;;;5.60;2.80;;;;;;;;;;5014610;28;20036;-74
2022/10/10 05:10:20;;;;;;;15.55;3.03;;;;;;;;;;5013998;28;20026;-71
2022/10/10 05:12:45;;;;;;;8.45;2.97;;;;;;;;;;5013754;28;20022;-73
2022/10/10 05:15:11;;;;;;;6.82;2.83;;;;;;;;;;5013865;28;20030;-75
2022/10/10 05:17:36;;;;;;;11.43;2.95;;;;;;;;;;5012669;28;20017;-74
2022/10/10 05:20:02;;;;;;;7.30;2.83;;;;;;;;;;5014196;28;20022;-75
2022/10/10 05:22:27;;;;;;;10.50;3.00;;;;;;;;;;5013793;28;20080;-74
2022/10/10 05:24:53;;;;;;;6.85;2.88;;;;;;;;;;5013715;28;20454;-75
2022/10/10 05:27:18;;;;;;;9.27;3.05;;;;;;;;;;5013757;28;20448;-74
2022/10/10 05:29:44;;;;;;;9.73;3.00;;;;;;;;;;5013573;28;20080;-74
2022/10/10 05:32:09;;;;;;;7.60;3.20;;;;;;;;;;5013588;28;20022;-74
2022/10/10 05:34:34;;;;;;;9.30;3.05;;;;;;;;;;5013656;28;20362;-76
2022/10/10 05:37:00;;;;;;;7.72;3.30;;;;;;;;;;5013741;28;20034;-72
2022/10/10 05:39:25;;;;;;;8.73;3.28;;;;;;;;;;5013704;28;20058;-72
2022/10/10 05:41:51;;;;;;;7.35;3.08;;;;;;;;;;5013735;28;20033;-72
2022/10/10 05:44:16;;;;;;;7.32;2.80;;;;;;;;;;5013586;28;20030;-72
2022/10/10 05:46:41;;;;;;;8.32;2.78;;;;;;;;;;5013363;28;20037;-73
2022/10/10 05:49:07;;;;;;;9.93;3.00;;;;;;;;;;5013247;28;20164;-74
2022/10/10 05:51:32;;;;;;;7.75;3.20;;;;;;;;;;5019359;28;20029;-75
2022/10/10 05:53:58;;;;;;;8.70;3.20;;;;;;;;;;5024096;28;20042;-75
2022/10/10 05:56:23;;;;;;;9.68;2.67;;;;;;;;;;5013626;28;20454;-75
2022/10/10 05:58:50;;;;;;;8.63;3.30;;;;;;;;;;5013499;28;20120;-77
2022/10/10 06:01:16;;;;;;;9.20;3.40;;;;;;;;;;5017380;28;20034;-76
2022/10/10 06:03:41;;;;;;;8.23;3.22;;;;;;;;;;5017499;28;20033;-76
2022/10/10 06:06:07;;;;;;;11.82;3.80;;;;;;;;;;5017231;28;20087;-77
2022/10/10 06:08:33;;;;;;;10.43;3.72;;;;;;;;;;5017227;28;20477;-76
2022/10/10 06:11:10;;;;;;;10.27;3.33;;;;;;;;;;5015960;28;20034;-75
2022/10/10 06:13:37;;;;;;;7.65;3.78;;;;;;;;;;5017394;28;20026;-75
2022/10/10 06:16:02;;;;;;;9.65;3.13;;;;;;;;;;5017601;28;20022;-73
2022/10/10 06:18:28;;;;;;;9.05;3.58;;;;;;;;;;5017121;28;20392;-77
2022/10/10 06:20:54;;;;;;;9.40;3.38;;;;;;;;;;5017049;28;20037;-77
2022/10/10 06:23:19;;;;;;;5.97;3.35;;;;;;;;;;5017586;28;20026;-76
2022/10/10 06:25:45;;;;;;;9.98;3.42;;;;;;;;;;5018421;28;20077;-77
2022/10/10 06:28:11;;;;;;;9.52;3.80;;;;;;;;;;5017063;28;20030;-75
2022/10/10 06:30:41;;;;;;;9.18;3.70;;;;;;;;;;5017021;28;20036;-77
2022/10/10 06:33:07;;;;;;;9.82;3.92;;;;;;;;;;5016946;28;20084;-76
2022/10/10 06:35:32;;;;;;;9.75;3.58;;;;;;;;;;5016635;28;20034;-76
2022/10/10 06:37:58;;;;;;;8.70;3.40;;;;;;;;;;5016717;28;20032;-78
2022/10/10 06:40:23;;;;;;;7.05;3.50;;;;;;;;;;5016593;28;20058;-78
2022/10/10 06:42:49;;;;;;;9.32;3.80;;;;;;;;;;5016640;28;20125;-74
2022/10/10 06:45:14;;;;;;;8.10;3.40;;;;;;;;;;5016431;28;20083;-77
2022/10/10 06:47:40;;;;;;;9.98;3.70;;;;;;;;;;5016562;28;20037;-76
2022/10/10 06:50:06;;;;;;;7.45;3.45;;;;;;;;;;5016744;28;20033;-75
2022/10/10 06:52:31;;;;;;;10.13;3.55;;;;;;;;;;5015071;28;20445;-74
2022/10/10 06:54:57;;;;;;;11.52;3.45;;;;;;;;;;5016520;28;20022;-75
2022/10/10 06:57:22;;;;;;;13.23;3.35;;;;;;;;;;5015054;28;20030;-73
2022/10/10 06:59:47;;;;;;;10.88;3.40;;;;;;;;;;5016185;28;20101;-74
2022/10/10 07:02:13;;;;;;;9.25;3.40;;;;;;;;;;5016016;28;20026;-74
2022/10/10 07:04:38;;;;;;;14.63;3.17;;;;;;;;;;5016201;28;20026;-75
2022/10/10 07:07:04;;;;;;;7.50;3.35;;;;;;;;;;5017987;28;20056;-75
2022/10/10 07:09:29;;;;;;;11.07;3.20;;;;;;;;;;5018255;28;20018;-73
2022/10/10 07:11:54;;;;;;;13.50;3.63;;;;;;;;;;5015383;28;20413;-75
2022/10/10 07:14:20;;;;;;;9.77;3.38;;;;;;;;;;5016011;28;20041;-74
2022/10/10 07:16:45;;;;;;;8.00;3.00;;;;;;;;;;5015909;28;20121;-74
2022/10/10 07:19:11;;;;;;;9.02;3.05;;;;;;;;;;5015896;28;20017;-73
2022/10/10 07:21:36;;;;;;;8.75;3.22;;;;;;;;;;5015863;28;20535;-74
2022/10/10 07:24:01;;;;;;;9.90;3.35;;;;;;;;;;5016022;28;20034;-74
2022/10/10 07:26:29;;;;;;;9.88;2.95;;;;;;;;;;5016085;28;20026;-74
2022/10/10 07:28:56;;;;;;;13.55;3.25;;;;;;;;;;5015927;28;20105;-74
2022/10/10 07:31:22;;;;;;;11.90;2.92;;;;;;;;;;5015922;28;20054;-75
2022/10/10 07:33:49;;;;;;;9.45;2.90;;;;;;;;;;5015915;28;20030;-75
2022/10/10 07:36:14;;;;;;;9.77;2.85;;;;;;;;;;5015547;28;20022;-75
2022/10/10 07:38:40;;;;;;;7.13;2.80;;;;;;;;;;5015521;28;20022;-75
2022/10/10 07:41:07;;;;;;;12.52;3.20;;;;;;;;;;5015586;28;20022;-75
2022/10/10 07:43:33;;;;;;;11.77;3.30;;;;;;;;;;5015627;28;20029;-75
2022/10/10 07:45:59;;;;;;;7.55;3.08;;;;;;;;;;5015634;28;20018;-75
2022/10/10 07:48:24;;;;;;;9.60;3.00;;;;;;;;;;5015443;28;20022;-73
2022/10/10 07:50:50;;;;;;;9.95;3.00;;;;;;;;;;5015187;28;20018;-72
2022/10/10 07:53:15;;;;;;;11.23;3.53;;;;;;;;;;5015083;28;20096;-73
2022/10/10 07:55:41;;;;;;;6.57;2.92;;;;;;;;;;5015391;28;20116;-74
2022/10/10 07:58:09;;;;;;;9.48;3.15;;;;;;;;;;5015238;28;20021;-73
2022/10/10 08:00:36;;;;;;;10.50;3.45;;;;;;;;;;5015003;28;20037;-74
2022/10/10 08:03:01;;;;;;;8.18;3.08;;;;;;;;;;5014822;28;20112;-73
2022/10/10 08:05:28;;;;;;;12.13;3.33;;;;;;;;;;5015180;28;20161;-74
2022/10/10 08:07:53;;;;;;;8.13;2.90;;;;;;;;;;5014884;28;20030;-73
2022/10/10 08:10:19;;;;;;;9.45;3.30;;;;;;;;;;5014709;28;20041;-73
2022/10/10 08:12:45;;;;;;;11.10;2.75;;;;;;;;;;5015069;28;20104;-73
2022/10/10 08:15:10;;;;;;;7.65;2.90;;;;;;;;;;5014921;28;20112;-73
2022/10/10 08:17:36;;;;;;;8.45;3.15;;;;;;;;;;5014973;28;20026;-73
2022/10/10 08:20:02;;;;;;;9.63;2.90;;;;;;;;;;5014858;28;20026;-73
2022/10/10 08:22:27;;;;;;;7.25;2.95;;;;;;;;;;5014169;28;20038;-73
2022/10/10 08:24:53;;;;;;;8.85;2.80;;;;;;;;;;5013864;28;20030;-73
2022/10/10 08:27:19;;;;;;;8.82;2.90;;;;;;;;;;5013116;28;20124;-72
2022/10/10 08:29:45;;;;;;;8.85;2.60;;;;;;;;;;5014432;28;20068;-72
2022/10/10 08:32:10;;;;;;;9.25;2.72;;;;;;;;;;5014460;28;20022;-73
2022/10/10 08:34:36;;;;;;;13.32;2.90;;;;;;;;;;5014407;28;20470;-73
2022/10/10 08:37:01;;;;;;;11.27;3.05;;;;;;;;;;5014572;28;20428;-73
2022/10/10 08:39:27;;;;;;;8.90;2.65;;;;;;;;;;5014638;28;20033;-74
2022/10/10 08:41:57;;;;;;;7.00;2.53;;;;;;;;;;5014243;28;20499;-74
2022/10/10 08:44:34;;;;;;;;;;;;;;;;;;5014520;28;20612;-73
2022/10/10 08:47:09;;;;;;;8.45;2.78;;;;;;;;;;5014328;28;19913;-73
2022/10/10 08:49:37;;;;;;;11.82;3.20;;;;;;;;;;5014268;28;20026;-75
2022/10/10 08:52:23;;;;;;;13.25;3.03;;;;;;;;;;5014284;28;20041;-74
2022/10/10 08:54:52;;;;;;;8.65;2.20;;;;;;;;;;5014094;28;20057;-73
2022/10/10 08:57:34;;;;;;;17.15;2.80;;;;;;;;;;5014233;28;20034;-73
2022/10/10 09:00:04;;;;;;;12.40;2.38;;;;;;;;;;5014156;28;20022;-74
2022/10/10 09:02:52;;;;;;;11.93;2.58;;;;;;;;;;5013770;28;20397;-73
2022/10/10 09:05:22;;;;;;;9.15;2.33;;;;;;;;;;5012654;28;20045;-74
2022/10/10 09:07:50;;;;;;;17.00;3.05;;;;;;;;;;5014012;28;20030;-72
2022/10/10 09:10:39;;;;;;;5.80;2.20;;;;;;;;;;5014097;28;20057;-74
2022/10/10 09:13:29;;;;;;;6.07;2.28;;;;;;;;;;5014340;28;20033;-73
2022/10/10 09:16:01;;;;;;;7.47;2.30;;;;;;;;;;5014007;28;20099;-75
2022/10/10 09:18:37;;;;;;;12.80;2.47;;;;;;;;;;5013746;28;20042;-74
2022/10/10 09:21:15;;;;;;;7.95;2.33;;;;;;;;;;5013872;28;20022;-73
2022/10/10 09:23:50;;;;;;;10.57;2.50;;;;;;;;;;5013627;28;20079;-73
2022/10/10 09:26:22;;;;;;;8.90;2.35;;;;;;;;;;5015416;28;20026;-81
2022/10/10 09:29:03;;;;;;;9.40;2.40;;;;;;;;;;5021338;28;20077;-72
2022/10/10 09:31:33;;;;;;;8.68;2.25;;;;;;;;;;5024406;28;20026;-73
2022/10/10 09:34:07;;;;;;;9.02;2.00;;;;;;;;;;5024028;28;20018;-73
2022/10/10 09:36:36;;;;;;;11.50;2.47;;;;;;;;;;5024314;28;20340;-72
2022/10/10 09:39:35;;;;;;;7.35;2.22;;;;;;;;;;5021977;28;20501;-72
2022/10/10 09:42:10;;;;;;;7.57;2.30;;;;;;;;;;4989695;28;20038;-73
2022/10/10 09:44:38;;;;;;;11.02;2.30;;;;;;;;;;5024260;28;20032;-73
2022/10/10 09:47:03;;;;;;;11.52;2.30;;;;;;;;;;5024631;28;20053;-72
2022/10/10 09:49:29;;;;;;;10.48;2.10;;;;;;;;;;5024106;28;20291;-72
2022/10/10 09:51:54;;;;;;;7.40;2.30;;;;;;;;;;5024154;28;20033;-74
2022/10/10 09:54:20;;;;;;;9.02;2.40;;;;;;;;;;5024014;28;20038;-72
2022/10/10 09:56:56;;;;;;;8.63;2.20;;;;;;;;;;5024217;28;20041;-72
2022/10/10 09:59:40;;;;;;;8.43;2.13;;;;;;;;;;5024618;28;20049;-73
2022/10/10 10:02:26;;;;;;;8.38;2.28;;;;;;;;;;5024062;28;20034;-73
2022/10/10 10:04:53;;;;;;;12.70;2.40;;;;;;;;;;5022538;28;20141;-73
2022/10/10 10:07:31;;;;;;;9.63;2.00;;;;;;;;;;5023335;28;20038;-73
2022/10/10 10:10:03;;;;;;;11.50;2.35;;;;;;;;;;5023930;28;20100;-75
2022/10/10 10:12:39;;;;;;;14.48;2.40;;;;;;;;;;5023955;28;20033;-74
2022/10/10 10:15:17;;;;;;;10.32;2.17;;;;;;;;;;5023918;28;20100;-74
2022/10/10 10:17:43;;;;;;;7.80;2.50;;;;;;;;;;5021939;28;20062;-73
2022/10/10 10:20:36;;;;;;;13.43;2.53;;;;;;;;;;5022662;28;20084;-74
2022/10/10 10:23:02;;;;;;;9.38;2.40;;;;;;;;;;5020419;28;20268;-76
2022/10/10 10:25:27;;;;;;;10.05;2.30;;;;;;;;;;5023625;28;20093;-76
2022/10/10 10:28:15;;;;;;;8.65;2.10;;;;;;;;;;5020202;28;20034;-75
2022/10/10 10:30:42;;;;;;;7.72;2.25;;;;;;;;;;5022678;28;20042;-76
2022/10/10 10:33:13;;;;;;;8.00;2.30;;;;;;;;;;5020890;28;20037;-76
2022/10/10 10:35:47;;;;;;;6.07;2.00;;;;;;;;;;5022386;28;20360;-79
2022/10/10 10:38:42;;;;;;;9.73;2.13;;;;;;;;;;5023623;28;20207;-76
2022/10/10 10:41:40;;;;;;;9.65;2.22;;;;;;;;;;5023790;28;20033;-77
2022/10/10 10:44:30;;;;;;;7.88;2.08;;;;;;;;;;4990852;28;20046;-72
2022/10/10 10:47:02;;;;;;;;;;;;;;;;;;5025492;28;20022;-73
2022/10/10 10:49:28;;;;;;;7.03;2.03;;;;;;;;;;5025315;28;19915;-74
2022/10/10 10:52:12;;;;;;;7.68;2.30;;;;;;;;;;5020132;28;20033;-74
2022/10/10 10:55:19;;;;;;;5.90;2.03;;;;;;;;;;5022663;28;20050;-72
2022/10/10 10:58:06;;;;;;;7.43;1.98;;;;;;;;;;5026734;28;20037;-73
2022/10/10 11:00:44;;;;;;;5.97;1.80;;;;;;;;;;5026368;28;20030;-73
2022/10/10 11:03:45;;;;;;;8.07;1.95;;;;;;;;;;5026821;28;20029;-71
2022/10/10 11:06:31;;;;;;;8.75;2.00;;;;;;;;;;5014944;28;20525;-73
2022/10/10 11:09:03;;;;;;;13.52;2.30;;;;;;;;;;5018414;28;20050;-72
2022/10/10 11:11:37;;;;;;;11.77;2.30;;;;;;;;;;5017705;28;20324;-71
2022/10/10 11:14:03;;;;;;;6.05;1.45;;;;;;;;;;5021133;28;20028;-71
2022/10/10 11:16:41;;;;;;;10.27;2.28;;;;;;;;;;5016267;28;20078;-73
2022/10/10 11:19:09;;;;;;;8.63;2.22;;;;;;;;;;5024986;28;20309;-75
2022/10/10 11:21:41;;;;;;;9.73;2.10;;;;;;;;;;5026581;28;20372;-79
2022/10/10 11:24:12;;;;;;;15.25;2.30;;;;;;;;;;5026441;28;20025;-73
2022/10/10 11:26:52;;;;;;;9.43;2.00;;;;;;;;;;5025354;28;20041;-74
2022/10/10 11:29:24;;;;;;;7.25;1.98;;;;;;;;;;5026225;28;20064;-73
2022/10/10 11:31:59;;;;;;;10.07;1.83;;;;;;;;;;5025800;28;20030;-72
2022/10/10 11:34:30;;;;;;;9.90;2.10;;;;;;;;;;5025630;28;20052;-74
2022/10/10 11:37:02;;;;;;;12.38;2.30;;;;;;;;;;5026310;28;20327;-75
2022/10/10 11:39:58;;;;;;;8.85;2.03;;;;;;;;;;5026286;28;20017;-74
2022/10/10 11:42:28;;;;;;;8.43;2.35;;;;;;;;;;5025042;28;20068;-72
2022/10/10 11:45:03;;;;;;;7.07;2.05;;;;;;;;;;5026567;28;20022;-73
2022/10/10 11:47:40;;;;;;;12.10;2.15;;;;;;;;;;5025950;28;20041;-74
2022/10/10 11:50:35;;;;;;;10.57;2.00;;;;;;;;;;5025127;28;20030;-76
2022/10/10 11:53:13;;;;;;;12.45;2.08;;;;;;;;;;5022853;28;20095;-73
2022/10/10 11:55:47;;;;;;;10.00;2.15;;;;;;;;;;5017870;28;20034;-74
2022/10/10 11:58:31;;;;;;;12.48;1.98;;;;;;;;;;5025664;28;20025;-76
2022/10/10 12:01:04;;;;;;;10.00;2.15;;;;;;;;;;5025314;28;20037;-73
2022/10/10 12:03:29;;;;;;;9.60;1.85;;;;;;;;;;5025977;28;20021;-74
2022/10/10 12:06:16;;;;;;;10.70;2.10;;;;;;;;;;5025866;28;20097;-75
2022/10/10 12:09:06;;;;;;;10.82;2.10;;;;;;;;;;5021453;28;20328;-82
2022/10/10 12:11:41;;;;;;;6.80;1.87;;;;;;;;;;5025784;28;20072;-77
2022/10/10 12:14:08;;;;;;;9.50;1.85;;;;;;;;;;5025458;28;20061;-75
2022/10/10 12:16:36;;;;;;;18.98;2.53;;;;;;;;;;5024249;28;20309;-77
2022/10/10 12:19:14;;;;;;;11.23;2.25;;;;;;;;;;5025332;28;20213;-81
2022/10/10 12:22:07;;;;;;;15.98;2.38;;;;;;;;;;5023551;28;20216;-84
2022/10/10 12:24:56;;;;;;;18.38;2.88;;;;;;;;;;5024493;28;20017;-74
2022/10/10 12:27:48;;;;;;;12.50;2.22;;;;;;;;;;5024911;28;20030;-74
2022/10/10 12:30:23;;;;;;;10.70;2.30;;;;;;;;;;4995668;28;20030;-75
2022/10/10 12:32:51;;;;;;;8.65;1.95;;;;;;;;;;5024022;28;20030;-74
2022/10/10 12:35:40;;;;;;;9.00;2.03;;;;;;;;;;5024927;28;20336;-79
2022/10/10 12:38:08;;;;;;;7.90;1.63;;;;;;;;;;5023891;28;20021;-78
2022/10/10 12:40:54;;;;;;;12.15;2.20;;;;;;;;;;5023904;28;20309;-73
2022/10/10 12:43:23;;;;;;;7.63;1.83;;;;;;;;;;5025074;28;20030;-74
2022/10/10 12:45:57;;;;;;;13.00;2.25;;;;;;;;;;5025072;28;20097;-77
2022/10/10 12:48:23;;;;;;;9.10;1.60;;;;;;;;;;5023922;28;20136;-78
2022/10/10 12:50:59;;;;;;;6.20;1.80;;;;;;;;;;5024956;28;20034;-77
2022/10/10 12:53:28;;;;;;;15.13;2.35;;;;;;;;;;5017420;28;20045;-75
2022/10/10 12:55:56;;;;;;;9.25;2.10;;;;;;;;;;5019390;28;20205;-77
2022/10/10 12:58:46;;;;;;;9.10;2.05;;;;;;;;;;5021103;28;20026;-77
2022/10/10 13:01:28;;;;;;;10.30;2.10;;;;;;;;;;5024464;28;20033;-79
2022/10/10 13:03:55;;;;;;;9.25;2.17;;;;;;;;;;5024900;28;20033;-81
2022/10/10 13:06:33;;;;;;;9.88;2.20;;;;;;;;;;5024752;28;20037;-78
2022/10/10 13:09:00;;;;;;;13.43;2.20;;;;;;;;;;5024009;28;20031;-77
2022/10/10 13:11:25;;;;;;;7.70;1.63;;;;;;;;;;5024630;28;20382;-79
2022/10/10 13:13:55;;;;;;;12.40;2.03;;;;;;;;;;5024705;28;20050;-74
2022/10/10 13:16:26;;;;;;;14.10;2.10;;;;;;;;;;5024744;28;20034;-80
2022/10/10 13:18:57;;;;;;;14.13;2.20;;;;;;;;;;5024562;28;20037;-72
2022/10/10 13:21:26;;;;;;;19.08;2.22;;;;;;;;;;5023799;28;20033;-79
2022/10/10 13:23:55;;;;;;;7.28;1.98;;;;;;;;;;5024197;28;20056;-78
2022/10/10 13:26:28;;;;;;;12.10;1.80;;;;;;;;;;5020316;28;20053;-75
2022/10/10 13:28:56;;;;;;;5.70;1.70;;;;;;;;;;5023786;28;20026;-74
2022/10/10 13:31:25;;;;;;;6.88;1.55;;;;;;;;;;5022947;28;20104;-74
2022/10/10 13:33:57;;;;;;;12.38;2.38;;;;;;;;;;5023709;28;20068;-76
2022/10/10 13:36:27;;;;;;;14.85;2.20;;;;;;;;;;5020587;28;20069;-72
2022/10/10 13:38:53;;;;;;;;;;;;;;;;;;5024811;28;20159;-74
2022/10/10 13:41:19;;;;;;;11.23;2.15;;;;;;;;;;5024122;28;19913;-77
2022/10/10 13:43:45;;;;;;;13.13;2.03;;;;;;;;;;5023951;28;20060;-76
2022/10/10 13:46:21;;;;;;;13.02;2.20;;;;;;;;;;5021518;28;20018;-77
2022/10/10 13:48:47;;;;;;;9.93;2.03;;;;;;;;;;5024207;28;20212;-81
2022/10/10 13:51:14;;;;;;;6.18;1.83;;;;;;;;;;5022766;28;20068;-79
2022/10/10 13:53:44;;;;;;;8.32;1.90;;;;;;;;;;5022624;28;20037;-81
2022/10/10 13:56:38;;;;;;;8.18;1.70;;;;;;;;;;5023271;28;20037;-81
2022/10/10 13:59:06;;;;;;;9.43;2.10;;;;;;;;;;5021616;28;20053;-78
2022/10/10 14:01:37;;;;;;;9.60;1.75;;;;;;;;;;5023227;28;20026;-73
2022/10/10 14:04:12;;;;;;;7.95;1.80;;;;;;;;;;5022817;28;20025;-74
2022/10/10 14:06:39;;;;;;;6.85;1.83;;;;;;;;;;5022961;28;20030;-73
2022/10/10 14:09:41;;;;;;;6.30;1.88;;;;;;;;;;5022937;28;20052;-73
2022/10/10 14:12:15;;;;;;;9.50;2.28;;;;;;;;;;4962668;29;20314;-74
2022/10/10 14:14:47;;;;;;;7.57;1.83;;;;;;;;;;5014321;28;20064;-74
2022/10/10 14:17:14;;;;;;;7.53;1.90;;;;;;;;;;5023082;28;20029;-74
2022/10/10 14:19:40;;;;;;;7.13;1.77;;;;;;;;;;5022425;28;20030;-74
2022/10/10 14:22:06;;;;;;;8.68;2.22;;;;;;;;;;5025577;28;20100;-74
2022/10/10 14:24:31;;;;;;;9.70;2.00;;;;;;;;;;5026757;28;20025;-74
2022/10/10 14:27:03;;;;;;;10.10;1.98;;;;;;;;;;5026035;28;20074;-74
2022/10/10 14:29:28;;;;;;;10.38;1.98;;;;;;;;;;5026010;28;20305;-73
2022/10/10 14:31:54;;;;;;;10.75;2.17;;;;;;;;;;5026287;28;20083;-73
2022/10/10 14:34:19;;;;;;;8.13;1.98;;;;;;;;;;5024702;28;20093;-75
2022/10/10 14:36:47;;;;;;;11.35;2.00;;;;;;;;;;5026106;28;20052;-73
2022/10/10 14:39:18;;;;;;;8.15;1.92;;;;;;;;;;5025750;28;20065;-75
2022/10/10 14:41:43;;;;;;;;;;;;;;;;;;5026452;28;20025;-73
2022/10/10 14:44:09;;;;;;;11.10;2.27;;;;;;;;;;5025981;28;19916;-72
2022/10/10 14:46:35;;;;;;;10.13;1.80;;;;;;;;;;5025963;28;20261;-74
2022/10/10 14:49:00;;;;;;;8.68;2.00;;;;;;;;;;5026066;28;20045;-73
2022/10/10 14:51:26;;;;;;;8.57;1.90;;;;;;;;;;5025708;28;20026;-73
2022/10/10 14:53:51;;;;;;;11.02;2.03;;;;;;;;;;5023675;28;20042;-73
2022/10/10 14:56:16;;;;;;;7.35;1.73;;;;;;;;;;5024623;28;20056;-73
2022/10/10 14:58:42;;;;;;;12.00;1.83;;;;;;;;;;5025994;28;20301;-73
2022/10/10 15:01:08;;;;;;;7.55;1.83;;;;;;;;;;5026306;28;20030;-73